Impacts TAF Board
For situational awareness. Not to be used for flight planning purposes.
IDs:

KHUM - Houma/Terrebonne Arp, LA, US

Issued at 1720 UTC 02 Oct 2022
Updated at 2222 UTC 02 Oct 2022
Potential Impact None Slight Moderate High
Time2047Z 02/23Z 03/00Z 03/01Z 03/02Z 03/03Z 03/04Z 03/05Z 03/06Z 03/07Z 03/08Z 03/09Z 03/10Z 03/11Z>>
Type OBS PRVL PRVL PRVL PRVL PRVL PRVL PRVL PRVL PRVL PRVL PRVL PRVL PRVL
VIS 7 >6 >6 >6 >6 >6 >6 >6 >6 >6 >6 >6 >6 >6
CIG -- -- -- -- -- -- -- -- -- -- -- -- -- --
Cover CLR SKC SKC SKC SKC SKC SKC SKC SKC SKC SKC SKC SKC SKC
FltCat VFR VFR VFR VFR VFR VFR VFR VFR VFR VFR VFR VFR VFR VFR
WX -- -- -- -- -- -- -- -- -- -- -- -- -- --
WDir 350 VRB VRB VRB VRB VRB VRB VRB VRB VRB VRB VRB VRB VRB
WSpd 8 3 3 3 3 3 3 3 3 3 3 3 3 3
WGst -- -- -- -- -- -- -- -- -- -- -- -- -- --
WSHgt -- -- -- -- -- -- -- -- -- -- -- -- -- --
WSDir -- -- -- -- -- -- -- -- -- -- -- -- -- --
WSSpd -- -- -- -- -- -- -- -- -- -- -- -- -- --
Raw TAF
KHUM 021720Z 0218/0318 36006KT P6SM SKC
  FM022300 VRB03KT P6SM SKC


Raw METAR
KHUM 022047Z 35008KT 7SM CLR 28/08 A3003
KHUM 021947Z 35008KT 7SM CLR 28/08 A3004

METAR Board
Radar Display
Forecast Discussion
For situational awareness. Not to be used for flight planning purposes.